Time;durP1;ratioP1;P1;durP2;ratioP2;P2;SDS_P1;SDS_P2;PMS_P1;PMS_P2;Temp;Humidity;BMP_temperature;BMP_pressure;BME280_temperature;BME280_humidity;BME280_pressure;Samples;Min_cycle;Max_cycle;Signal;HPM_P1;HPM_P2
2022/01/14 05:02:54;;;;;;;42.73;32.80;;;0.00;99.90;;;;;;5101941;27;20862;-71
2022/01/14 05:05:23;;;;;;;41.50;33.70;;;-0.10;99.90;;;;;;5097421;28;20848;-72
2022/01/14 05:07:51;;;;;;;40.87;30.97;;;0.00;99.90;;;;;;5092480;28;20445;-72
2022/01/14 05:10:25;;;;;;;42.87;31.70;;;0.00;99.90;;;;;;5092743;28;20445;-72
2022/01/14 05:12:53;;;;;;;42.50;30.90;;;0.10;99.90;;;;;;5095047;28;20472;-71
2022/01/14 05:15:20;;;;;;;39.73;31.37;;;0.10;99.90;;;;;;5094511;28;20445;-71
2022/01/14 05:17:48;;;;;;;42.17;31.53;;;0.20;99.90;;;;;;5093222;28;20442;-71
2022/01/14 05:20:17;;;;;;;41.60;30.80;;;0.20;99.90;;;;;;5104791;28;20442;-71
2022/01/14 05:22:44;;;;;;;42.77;30.50;;;0.30;99.90;;;;;;5112827;28;20465;-71
2022/01/14 05:25:14;;;;;;;40.00;31.27;;;0.40;99.90;;;;;;5113227;28;20431;-71
2022/01/14 05:27:42;;;;;;;35.23;29.90;;;0.40;99.90;;;;;;5112306;28;20449;-70
2022/01/14 05:30:11;;;;;;;38.83;29.60;;;0.40;99.90;;;;;;5112248;28;20446;-71
2022/01/14 05:32:45;;;;;;;33.97;28.40;;;0.50;99.90;;;;;;5113707;28;20468;-71
2022/01/14 05:35:14;;;;;;;35.70;28.30;;;0.60;99.90;;;;;;5111939;28;20437;-71
2022/01/14 05:37:42;;;;;;;37.43;29.30;;;0.60;99.90;;;;;;5096027;28;20840;-71
2022/01/14 05:40:10;;;;;;;35.43;27.97;;;0.60;99.90;;;;;;5093200;28;20476;-71
2022/01/14 05:42:37;;;;;;;36.47;28.60;;;0.70;99.90;;;;;;5092698;28;20476;-71
2022/01/14 05:45:04;;;;;;;34.90;28.60;;;0.70;99.90;;;;;;5092856;28;20461;-71
2022/01/14 05:47:31;;;;;;;37.97;29.50;;;0.70;99.90;;;;;;5092678;28;20449;-71
2022/01/14 05:49:58;;;;;;;36.07;28.17;;;0.70;99.90;;;;;;5092650;28;20458;-71
2022/01/14 05:52:24;;;;;;;35.10;28.00;;;0.70;99.90;;;;;;5092131;28;20470;-71
2022/01/14 05:54:53;;;;;;;36.60;28.63;;;0.70;99.90;;;;;;5092522;28;20442;-71
2022/01/14 05:57:20;;;;;;;31.90;27.63;;;0.70;99.90;;;;;;5092489;28;20457;-70
2022/01/14 05:59:47;;;;;;;37.03;28.97;;;0.70;99.90;;;;;;5092513;28;20450;-70
2022/01/14 06:02:14;;;;;;;39.37;28.50;;;0.70;99.90;;;;;;5092166;28;20478;-72
2022/01/14 06:04:42;;;;;;;36.10;29.60;;;0.70;99.90;;;;;;5108547;28;20453;-71
2022/01/14 06:07:09;;;;;;;45.10;34.87;;;1.20;99.90;;;;;;5111423;28;20453;-71
2022/01/14 06:09:36;;;;;;;38.90;32.40;;;1.70;99.90;;;;;;5112968;28;20426;-71
2022/01/14 06:12:05;;;;;;;35.77;28.27;;;2.10;99.90;;;;;;5112566;28;20446;-70
2022/01/14 06:14:32;;;;;;;33.63;26.70;;;2.20;99.90;;;;;;5087617;28;20446;-71
2022/01/14 06:16:59;;;;;;;33.53;26.43;;;2.30;99.90;;;;;;5079951;28;20450;-71
2022/01/14 06:19:27;;;;;;;32.03;23.07;;;2.70;99.90;;;;;;5079134;28;20952;-71
2022/01/14 06:21:54;;;;;;;31.87;23.90;;;2.80;99.90;;;;;;5078421;28;20478;-71
2022/01/14 06:24:20;;;;;;;31.53;24.73;;;3.20;99.90;;;;;;5079009;28;20450;-71
2022/01/14 06:26:47;;;;;;;28.70;23.60;;;3.30;99.90;;;;;;5087521;28;20455;-71
2022/01/14 06:29:15;;;;;;;32.37;25.70;;;3.10;99.90;;;;;;5086012;28;20458;-71
2022/01/14 06:31:42;;;;;;;32.97;24.03;;;2.40;99.90;;;;;;5087409;28;20470;-70
2022/01/14 06:34:10;;;;;;;31.47;24.50;;;2.20;99.90;;;;;;5081451;28;20457;-71
2022/01/14 06:36:36;;;;;;;30.90;26.17;;;1.90;99.90;;;;;;5082051;28;20438;-71
2022/01/14 06:39:03;;;;;;;33.93;27.20;;;1.80;99.90;;;;;;5086195;28;20941;-71
2022/01/14 06:41:30;;;;;;;33.53;25.00;;;1.60;99.90;;;;;;5080603;28;20483;-71
2022/01/14 06:43:58;;;;;;;34.47;25.63;;;1.50;99.90;;;;;;5078909;28;20947;-71
2022/01/14 06:46:26;;;;;;;33.13;26.40;;;1.40;99.90;;;;;;5082623;28;20455;-71
2022/01/14 06:48:52;;;;;;;32.77;26.00;;;1.20;99.90;;;;;;5087481;28;20454;-71
2022/01/14 06:51:19;;;;;;;34.83;26.90;;;1.20;99.90;;;;;;5083154;28;21004;-71
2022/01/14 06:53:46;;;;;;;31.30;26.07;;;1.20;99.90;;;;;;5078700;28;20545;-71
2022/01/14 06:56:14;;;;;;;32.43;25.00;;;1.10;99.90;;;;;;5080479;28;20473;-71
2022/01/14 06:58:41;;;;;;;31.83;25.30;;;1.10;99.90;;;;;;5078954;28;20458;-71
2022/01/14 07:01:08;;;;;;;33.53;24.93;;;1.10;99.90;;;;;;5078305;28;20482;-71
2022/01/14 07:03:36;;;;;;;29.50;24.10;;;1.10;99.90;;;;;;5079004;28;20454;-71
2022/01/14 07:06:03;;;;;;;32.50;26.70;;;1.10;99.90;;;;;;5077845;28;20941;-71
2022/01/14 07:08:30;;;;;;;33.63;26.57;;;1.10;99.90;;;;;;5077101;28;20469;-72
2022/01/14 07:10:57;;;;;;;33.90;25.77;;;1.00;99.90;;;;;;5076741;28;20481;-72
2022/01/14 07:13:23;;;;;;;32.63;24.73;;;1.10;99.90;;;;;;5077257;28;20450;-70
2022/01/14 07:15:50;;;;;;;32.63;26.63;;;1.10;99.90;;;;;;5077566;28;20846;-71
2022/01/14 07:18:17;;;;;;;36.33;26.30;;;1.10;99.90;;;;;;5077272;28;20785;-70
2022/01/14 07:20:45;;;;;;;36.93;26.93;;;1.10;99.90;;;;;;5077357;28;20474;-70
2022/01/14 07:23:11;;;;;;;30.07;25.93;;;1.00;99.90;;;;;;5078621;28;20481;-70
2022/01/14 07:25:39;;;;;;;30.37;24.60;;;1.00;99.90;;;;;;5077504;28;20462;-70
2022/01/14 07:28:06;;;;;;;32.03;25.33;;;1.00;99.90;;;;;;5078020;28;20529;-70
2022/01/14 07:30:33;;;;;;;30.77;25.20;;;1.10;99.90;;;;;;5077880;28;20474;-69
2022/01/14 07:33:01;;;;;;;30.30;25.27;;;1.10;99.90;;;;;;5077450;28;20431;-69
2022/01/14 07:35:28;;;;;;;29.87;24.00;;;1.10;99.90;;;;;;5078514;28;20797;-69
2022/01/14 07:37:56;;;;;;;29.40;24.47;;;1.20;99.90;;;;;;5078262;28;20572;-70
2022/01/14 07:40:23;;;;;;;32.57;24.70;;;1.20;99.90;;;;;;5077607;28;20450;-70
2022/01/14 07:42:49;;;;;;;38.93;25.67;;;1.20;99.90;;;;;;5079276;28;20481;-70
2022/01/14 07:45:16;;;;;;;32.50;23.67;;;1.40;99.90;;;;;;5080373;28;20450;-70
2022/01/14 07:47:43;;;;;;;28.03;22.93;;;1.90;99.90;;;;;;5077239;28;20478;-69
2022/01/14 07:50:10;;;;;;;26.43;20.83;;;2.60;99.90;;;;;;5077768;28;20461;-70
2022/01/14 07:52:36;;;;;;;25.27;20.37;;;3.50;99.90;;;;;;5077048;28;20470;-71
2022/01/14 07:55:05;;;;;;;24.00;19.87;;;4.10;99.90;;;;;;5077612;28;20460;-71
2022/01/14 07:57:32;;;;;;;24.10;20.33;;;4.80;99.90;;;;;;5076347;28;20944;-71
2022/01/14 07:59:59;;;;;;;25.10;20.50;;;5.50;99.90;;;;;;5076472;28;20459;-70
2022/01/14 08:02:26;;;;;;;24.30;20.43;;;6.30;99.90;;;;;;5076526;28;20486;-70
2022/01/14 08:04:54;;;;;;;22.23;19.00;;;7.20;99.90;;;;;;5076119;28;20493;-71
2022/01/14 08:07:23;;;;;;;22.10;19.80;;;7.70;99.90;;;;;;5076807;28;20486;-71
2022/01/14 08:09:50;;;;;;;23.20;20.80;;;8.70;99.90;;;;;;5076637;28;20455;-71
2022/01/14 08:12:18;;;;;;;24.33;21.73;;;9.50;99.90;;;;;;5076972;28;20478;-71
2022/01/14 08:14:44;;;;;;;23.60;20.00;;;9.30;99.90;;;;;;5076775;28;20793;-70
2022/01/14 08:17:14;;;;;;;23.83;19.80;;;10.10;99.90;;;;;;5076039;28;20451;-70
2022/01/14 08:19:41;;;;;;;22.47;20.10;;;10.60;98.80;;;;;;5076415;28;20457;-70
2022/01/14 08:22:08;;;;;;;24.40;21.50;;;11.00;95.70;;;;;;5075490;28;20990;-70
2022/01/14 08:24:36;;;;;;;22.37;19.97;;;10.90;95.80;;;;;;5075465;28;20824;-70
2022/01/14 08:27:05;;;;;;;22.90;20.60;;;11.60;95.10;;;;;;5075910;28;20458;-70
2022/01/14 08:29:33;;;;;;;22.50;20.10;;;12.20;93.20;;;;;;5075345;28;20480;-70
2022/01/14 08:32:00;;;;;;;22.37;20.07;;;12.90;91.50;;;;;;5075445;28;21040;-70
2022/01/14 08:34:27;;;;;;;27.90;21.13;;;13.10;90.10;;;;;;5075759;28;20918;-70
2022/01/14 08:36:54;;;;;;;22.33;20.03;;;13.50;87.40;;;;;;5076149;28;20461;-70
2022/01/14 08:39:21;;;;;;;22.83;19.90;;;13.80;85.40;;;;;;5075598;28;20458;-70
2022/01/14 08:41:48;;;;;;;24.70;19.63;;;14.00;83.20;;;;;;5075872;28;20477;-70
2022/01/14 08:44:16;;;;;;;22.80;19.20;;;13.00;81.50;;;;;;5075629;28;20459;-71
2022/01/14 08:46:44;;;;;;;23.23;20.70;;;13.70;83.10;;;;;;5075606;28;20458;-70
2022/01/14 08:49:11;;;;;;;22.87;20.50;;;14.10;80.90;;;;;;5076349;28;20457;-70
2022/01/14 08:51:38;;;;;;;23.50;20.20;;;14.60;79.80;;;;;;5075456;28;20474;-70
2022/01/14 08:54:07;;;;;;;23.00;19.90;;;14.80;77.50;;;;;;5075247;28;20935;-71
2022/01/14 08:56:34;;;;;;;23.83;21.20;;;15.20;75.20;;;;;;5074607;28;20934;-70
2022/01/14 08:59:01;;;;;;;23.43;19.77;;;15.20;74.10;;;;;;5075669;28;20459;-70
2022/01/14 09:01:28;;;;;;;23.77;21.47;;;14.90;74.20;;;;;;5075897;28;20491;-70
2022/01/14 09:03:56;;;;;;;23.43;21.00;;;15.40;73.10;;;;;;5075069;28;20488;-70
2022/01/14 09:06:23;;;;;;;24.07;21.57;;;15.60;72.20;;;;;;5075506;28;20449;-70
2022/01/14 09:08:50;;;;;;;22.53;20.30;;;15.80;71.30;;;;;;5075168;28;20454;-70
2022/01/14 09:11:17;;;;;;;25.23;21.40;;;15.60;68.60;;;;;;5075366;28;20479;-71
2022/01/14 09:13:44;;;;;;;24.93;20.27;;;15.30;68.60;;;;;;5075348;28;20485;-70
2022/01/14 09:16:11;;;;;;;25.30;21.73;;;15.30;69.10;;;;;;5076006;28;20526;-70
2022/01/14 09:18:38;;;;;;;22.87;20.47;;;14.90;68.70;;;;;;5075392;28;20976;-71
2022/01/14 09:21:06;;;;;;;22.47;20.03;;;14.00;70.70;;;;;;5075240;28;20497;-70
2022/01/14 09:23:34;;;;;;;23.80;20.83;;;13.40;72.70;;;;;;5074378;28;20474;-71
2022/01/14 09:26:01;;;;;;;24.80;20.93;;;11.90;76.20;;;;;;5074750;28;20788;-70
2022/01/14 09:28:29;;;;;;;23.00;19.87;;;10.80;79.40;;;;;;5074698;28;20461;-70
2022/01/14 09:30:57;;;;;;;29.90;21.40;;;9.90;84.80;;;;;;5074153;28;20475;-69
2022/01/14 09:33:25;;;;;;;26.20;21.13;;;9.10;89.50;;;;;;5076219;28;20452;-69
2022/01/14 09:35:51;;;;;;;27.43;21.73;;;8.10;92.40;;;;;;5077124;28;20450;-69
2022/01/14 09:38:21;;;;;;;22.67;20.23;;;7.50;95.40;;;;;;5077294;28;20928;-70
2022/01/14 09:40:50;;;;;;;29.00;21.13;;;6.90;98.30;;;;;;5077404;28;20562;-69
2022/01/14 09:43:17;;;;;;;26.63;22.53;;;6.60;99.90;;;;;;5076443;28;20996;-69
2022/01/14 09:45:44;;;;;;;27.90;22.03;;;6.30;99.90;;;;;;5076543;28;20450;-70
2022/01/14 09:48:15;;;;;;;22.90;20.30;;;6.00;99.90;;;;;;5077466;28;20451;-69
2022/01/14 09:50:42;;;;;;;25.80;19.27;;;5.80;99.90;;;;;;5087418;28;20497;-69
2022/01/14 09:53:12;;;;;;;31.10;21.30;;;5.20;99.90;;;;;;5090637;28;20454;-69
2022/01/14 09:55:41;;;;;;;29.83;21.17;;;4.80;99.90;;;;;;5089867;28;20464;-70
2022/01/14 09:58:08;;;;;;;27.50;19.30;;;4.90;99.90;;;;;;5083061;28;20525;-69
2022/01/14 10:00:35;;;;;;;25.30;20.30;;;5.10;99.90;;;;;;5085773;28;20462;-70
2022/01/14 10:03:17;;;;;;;27.97;19.73;;;5.80;99.90;;;;;;5080526;28;20466;-70
2022/01/14 10:05:44;;;;;;;28.40;20.63;;;6.60;99.90;;;;;;5078804;28;20442;-70
2022/01/14 10:08:16;;;;;;;22.07;19.03;;;7.50;99.90;;;;;;5088511;28;20451;-70
2022/01/14 10:10:47;;;;;;;23.53;19.03;;;8.80;99.90;;;;;;5087706;28;20471;-71
2022/01/14 10:13:15;;;;;;;22.27;19.87;;;9.70;99.90;;;;;;5078244;28;20477;-70
2022/01/14 10:15:50;;;;;;;23.90;21.27;;;9.80;98.40;;;;;;5077745;28;20834;-71
2022/01/14 10:18:19;;;;;;;22.57;19.57;;;10.30;96.80;;;;;;5077602;28;20448;-70
2022/01/14 10:20:45;;;;;;;26.13;21.70;;;10.20;96.70;;;;;;5077424;28;20487;-70
2022/01/14 10:23:13;;;;;;;22.47;20.00;;;9.90;97.20;;;;;;5077276;28;20481;-70
2022/01/14 10:25:41;;;;;;;27.93;21.37;;;9.40;97.50;;;;;;5077287;28;20513;-71
2022/01/14 10:28:20;;;;;;;25.73;21.80;;;8.80;98.70;;;;;;5077256;28;20460;-71
2022/01/14 10:30:49;;;;;;;22.73;19.70;;;8.20;99.90;;;;;;5077704;28;20471;-69
2022/01/14 10:33:21;;;;;;;25.53;21.23;;;7.60;99.90;;;;;;5077461;28;20938;-70
2022/01/14 10:35:48;;;;;;;23.60;20.57;;;7.30;99.90;;;;;;5077769;28;20454;-69
2022/01/14 10:38:17;;;;;;;26.20;21.20;;;6.70;99.90;;;;;;5078872;28;20451;-70
2022/01/14 10:40:45;;;;;;;25.97;20.70;;;6.60;99.90;;;;;;5078365;28;20505;-71
2022/01/14 10:43:15;;;;;;;24.10;20.20;;;7.10;99.90;;;;;;5077599;28;20479;-70
2022/01/14 10:45:44;;;;;;;21.93;19.47;;;8.60;99.90;;;;;;5079642;28;20450;-70
2022/01/14 10:48:12;;;;;;;24.27;19.80;;;10.20;99.90;;;;;;5081116;28;20459;-69
2022/01/14 10:50:41;;;;;;;22.73;19.90;;;11.00;98.60;;;;;;5079381;28;20470;-69
2022/01/14 10:53:12;;;;;;;22.77;20.33;;;11.90;94.10;;;;;;5077361;28;20446;-70
2022/01/14 10:55:42;;;;;;;22.90;19.50;;;11.90;93.30;;;;;;5077242;28;20444;-69
2022/01/14 10:58:14;;;;;;;23.30;19.90;;;12.70;92.60;;;;;;5077127;28;20458;-69
2022/01/14 11:00:44;;;;;;;24.67;21.40;;;13.50;89.80;;;;;;5076883;28;20891;-70
2022/01/14 11:03:11;;;;;;;26.50;21.13;;;11.80;90.20;;;;;;5079785;28;20465;-71
2022/01/14 11:05:39;;;;;;;23.30;20.90;;;11.70;91.20;;;;;;5090817;28;20452;-71
2022/01/14 11:08:06;;;;;;;24.93;19.97;;;11.50;91.70;;;;;;5088439;28;20453;-72
2022/01/14 11:10:35;;;;;;;24.13;21.80;;;11.10;92.00;;;;;;5085198;28;20453;-72
2022/01/14 11:13:05;;;;;;;22.30;19.90;;;10.80;92.80;;;;;;5080644;28;20434;-71
2022/01/14 11:15:33;;;;;;;22.10;19.63;;;10.60;93.30;;;;;;5079123;28;20519;-71
2022/01/14 11:18:05;;;;;;;23.03;20.60;;;10.00;94.80;;;;;;5078344;28;20528;-70
2022/01/14 11:20:36;;;;;;;23.60;18.70;;;9.70;95.90;;;;;;5078006;28;20458;-70
2022/01/14 11:23:14;;;;;;;28.13;21.33;;;9.40;96.80;;;;;;5077129;28;20547;-70
2022/01/14 11:25:45;;;;;;;25.27;19.40;;;8.40;99.00;;;;;;5077852;28;20526;-72
2022/01/14 11:28:17;;;;;;;21.10;18.60;;;8.10;99.90;;;;;;5077568;28;20441;-72
2022/01/14 11:30:44;;;;;;;22.40;17.90;;;7.80;99.90;;;;;;5076827;28;20476;-72
2022/01/14 11:33:15;;;;;;;24.20;19.00;;;7.30;99.90;;;;;;5077873;28;20518;-70
2022/01/14 11:35:54;;;;;;;25.47;19.87;;;7.20;99.90;;;;;;5076424;28;20448;-70
2022/01/14 11:38:40;;;;;;;20.40;17.67;;;6.90;99.90;;;;;;5078024;28;20446;-70
2022/01/14 11:41:07;;;;;;;20.27;17.80;;;6.90;99.90;;;;;;5084933;28;20470;-70
2022/01/14 11:43:50;;;;;;;19.80;17.60;;;6.70;99.90;;;;;;5076296;28;20471;-70
2022/01/14 11:46:43;;;;;;;19.63;15.50;;;6.80;99.90;;;;;;5076424;28;20522;-70
2022/01/14 11:49:34;;;;;;;19.27;15.20;;;6.90;99.90;;;;;;5076203;28;20435;-70
2022/01/14 11:52:02;;;;;;;18.07;15.10;;;6.90;99.90;;;;;;5075722;28;20470;-70
2022/01/14 11:54:40;;;;;;;16.47;13.70;;;6.90;99.90;;;;;;5075797;28;20439;-70
2022/01/14 11:57:07;;;;;;;19.47;16.83;;;6.80;99.90;;;;;;5075835;28;20453;-69
2022/01/14 11:59:44;;;;;;;21.37;17.50;;;7.00;99.90;;;;;;5075697;28;20431;-70
2022/01/14 12:02:32;;;;;;;22.80;18.67;;;7.20;99.90;;;;;;5075506;28;20482;-70
2022/01/14 12:05:14;;;;;;;21.30;18.80;;;7.40;99.90;;;;;;5076473;28;20435;-70
2022/01/14 12:08:11;;;;;;;21.17;17.73;;;7.60;99.90;;;;;;5076550;28;20486;-69
2022/01/14 12:10:40;;;;;;;19.77;17.77;;;7.70;99.90;;;;;;5077656;28;20977;-70
2022/01/14 12:13:27;;;;;;;22.47;17.13;;;7.70;99.90;;;;;;5075973;28;20798;-70
2022/01/14 12:15:57;;;;;;;23.03;17.63;;;7.80;99.90;;;;;;5076835;28;20775;-69
2022/01/14 12:19:17;;;;;;;23.03;17.50;;;7.80;99.90;;;;;;5079644;28;20440;-70
2022/01/14 12:22:02;;;;;;;20.17;16.93;;;7.90;99.90;;;;;;5078747;28;20474;-70
2022/01/14 12:24:34;;;;;;;20.70;16.83;;;7.60;99.90;;;;;;5075653;28;20462;-70
2022/01/14 12:27:28;;;;;;;22.37;15.80;;;7.50;99.90;;;;;;5075810;28;20437;-70
2022/01/14 12:30:22;;;;;;;16.50;14.60;;;7.60;99.90;;;;;;5078829;28;20435;-71
2022/01/14 12:32:53;;;;;;;17.97;15.90;;;7.70;99.90;;;;;;5072340;28;20447;-70
2022/01/14 12:35:26;;;;;;;18.63;16.00;;;7.70;99.90;;;;;;5082319;28;20438;-71
2022/01/14 12:37:56;;;;;;;17.60;14.13;;;7.80;99.90;;;;;;5092263;28;20432;-70
2022/01/14 12:40:25;;;;;;;18.10;15.70;;;7.80;99.90;;;;;;5076792;28;20451;-71
2022/01/14 12:42:55;;;;;;;16.20;14.27;;;7.90;99.90;;;;;;5083462;28;20454;-70
2022/01/14 12:45:30;;;;;;;17.90;15.93;;;7.90;99.90;;;;;;5079301;28;20874;-70
2022/01/14 12:48:31;;;;;;;15.33;13.70;;;7.90;99.90;;;;;;5079376;28;20462;-70
2022/01/14 12:51:13;;;;;;;20.07;14.20;;;8.00;99.90;;;;;;5075261;28;20571;-71
2022/01/14 12:53:55;;;;;;;16.07;14.37;;;8.10;99.90;;;;;;5075478;28;20437;-70
2022/01/14 12:56:25;;;;;;;15.90;14.20;;;8.10;99.90;;;;;;5080446;28;20435;-70
2022/01/14 12:58:54;;;;;;;15.40;13.17;;;8.10;99.90;;;;;;5096753;28;20440;-71
2022/01/14 13:01:32;;;;;;;16.10;14.27;;;8.00;99.90;;;;;;5081895;28;20471;-70
2022/01/14 13:04:02;;;;;;;16.97;15.17;;;7.80;99.90;;;;;;5076894;28;20846;-69
2022/01/14 13:06:29;;;;;;;17.90;14.30;;;7.90;99.90;;;;;;5075002;28;20459;-71
2022/01/14 13:08:58;;;;;;;20.33;14.77;;;8.00;99.90;;;;;;5077410;28;20458;-70
2022/01/14 13:11:26;;;;;;;17.33;15.47;;;7.80;99.90;;;;;;5077620;28;20471;-70
2022/01/14 13:14:00;;;;;;;16.73;15.10;;;7.90;99.90;;;;;;5078469;28;20555;-70
2022/01/14 13:16:27;;;;;;;15.70;13.37;;;8.00;99.90;;;;;;5074838;28;20454;-70
2022/01/14 13:18:55;;;;;;;19.13;15.17;;;8.50;99.90;;;;;;5074033;28;20464;-71
2022/01/14 13:21:22;;;;;;;19.43;14.67;;;8.90;99.90;;;;;;5073785;28;20477;-70
2022/01/14 13:23:49;;;;;;;17.20;14.60;;;9.30;99.90;;;;;;5076756;28;20572;-70
2022/01/14 13:26:17;;;;;;;16.03;14.43;;;9.40;99.90;;;;;;5081529;28;20452;-72
2022/01/14 13:28:48;;;;;;;19.47;15.17;;;9.40;99.90;;;;;;5078983;28;20947;-71
2022/01/14 13:31:17;;;;;;;14.70;13.30;;;9.70;99.90;;;;;;5077792;28;21018;-71
2022/01/14 13:33:44;;;;;;;19.93;13.73;;;9.70;99.90;;;;;;5077936;28;20446;-71
2022/01/14 13:36:10;;;;;;;15.30;13.80;;;9.50;99.90;;;;;;5077892;28;20457;-71
2022/01/14 13:38:37;;;;;;;16.63;14.93;;;9.50;99.90;;;;;;5077855;28;20458;-71
2022/01/14 13:41:04;;;;;;;16.23;14.40;;;9.40;99.90;;;;;;5077696;28;20523;-71
2022/01/14 13:43:37;;;;;;;16.00;14.00;;;9.30;99.90;;;;;;5077782;28;20475;-71
2022/01/14 13:46:07;;;;;;;20.80;14.90;;;9.20;99.90;;;;;;5078250;28;20439;-71
2022/01/14 13:48:42;;;;;;;16.10;14.40;;;9.20;99.90;;;;;;5078732;28;20523;-71
2022/01/14 13:51:12;;;;;;;21.00;14.93;;;9.10;99.90;;;;;;5077857;28;20493;-71
2022/01/14 13:53:41;;;;;;;16.40;14.57;;;9.00;99.90;;;;;;5077822;28;20899;-70
2022/01/14 13:56:12;;;;;;;17.40;14.40;;;8.80;99.90;;;;;;5078033;28;20819;-70
2022/01/14 13:58:43;;;;;;;16.63;15.03;;;8.90;99.90;;;;;;5078050;28;20443;-71
2022/01/14 14:01:11;;;;;;;19.83;15.20;;;8.90;99.90;;;;;;5077758;28;20484;-70
2022/01/14 14:03:47;;;;;;;18.43;16.63;;;8.80;99.90;;;;;;5077613;28;20485;-71
2022/01/14 14:06:18;;;;;;;17.27;15.47;;;8.70;99.90;;;;;;5078678;28;20472;-72
2022/01/14 14:08:52;;;;;;;18.73;16.83;;;8.70;99.90;;;;;;5077634;28;20487;-72
2022/01/14 14:12:01;;;;;;;18.03;16.13;;;8.60;99.90;;;;;;5077564;28;20524;-71
2022/01/14 14:17:15;;;;;;;19.93;16.53;;;8.50;99.90;;;;;;5076953;28;20423;-70
2022/01/14 14:19:44;;;;;;;19.13;16.03;;;8.60;99.90;;;;;;5077655;28;20508;-71
2022/01/14 14:22:16;;;;;;;21.50;15.87;;;8.60;99.90;;;;;;5077627;28;20483;-70
2022/01/14 14:25:00;;;;;;;22.00;17.63;;;8.60;99.90;;;;;;5076831;28;20471;-71
2022/01/14 14:27:28;;;;;;;19.07;16.00;;;8.60;99.90;;;;;;5076573;28;20441;-70
2022/01/14 14:29:57;;;;;;;17.97;15.63;;;8.60;99.90;;;;;;5077023;28;20451;-71
2022/01/14 14:32:27;;;;;;;20.47;16.33;;;8.70;99.90;;;;;;5076619;28;20482;-72
2022/01/14 14:34:55;;;;;;;33.33;17.40;;;8.80;99.90;;;;;;5076379;28;20447;-69
2022/01/14 14:37:22;;;;;;;22.60;15.57;;;8.90;99.90;;;;;;5077191;28;20456;-71
2022/01/14 14:39:49;;;;;;;18.23;15.33;;;9.00;99.90;;;;;;5077614;28;20458;-71
2022/01/14 14:42:16;;;;;;;19.70;16.40;;;9.00;99.90;;;;;;5077081;28;20476;-69
2022/01/14 14:44:43;;;;;;;17.10;15.30;;;9.10;99.90;;;;;;5077152;28;20480;-71
2022/01/14 14:47:12;;;;;;;18.60;15.43;;;9.20;99.90;;;;;;5077432;28;20459;-71
2022/01/14 14:49:39;;;;;;;17.77;15.97;;;9.20;99.90;;;;;;5077089;28;20800;-71
2022/01/14 14:52:06;;;;;;;21.50;16.90;;;9.20;99.90;;;;;;5079635;28;20491;-71
2022/01/14 14:54:33;;;;;;;20.67;17.60;;;9.10;99.90;;;;;;5083729;28;20444;-70
2022/01/14 14:57:00;;;;;;;21.70;18.60;;;9.00;99.90;;;;;;5082796;28;20525;-70
2022/01/14 14:59:27;;;;;;;18.17;16.27;;;8.90;99.90;;;;;;5080112;28;20455;-70
2022/01/14 15:01:55;;;;;;;19.00;16.87;;;8.80;99.90;;;;;;5078728;28;20514;-70
2022/01/14 15:04:23;;;;;;;17.87;16.07;;;8.80;99.90;;;;;;5076641;28;20487;-71
2022/01/14 15:06:49;;;;;;;18.23;16.33;;;8.80;99.90;;;;;;5076177;28;20458;-70
2022/01/14 15:09:16;;;;;;;24.27;16.80;;;8.80;99.90;;;;;;5076607;28;20458;-71
2022/01/14 15:11:43;;;;;;;19.10;16.60;;;8.80;99.90;;;;;;5076031;28;20829;-71
2022/01/14 15:14:10;;;;;;;23.83;16.23;;;8.70;99.90;;;;;;5076248;28;20451;-69
2022/01/14 15:19:20;;;;;;;18.40;16.47;;;8.70;99.90;;;;;;5065291;28;20443;-70
2022/01/14 15:21:48;;;;;;;21.50;15.63;;;8.70;99.90;;;;;;5076996;28;20467;-72
2022/01/14 15:24:15;;;;;;;19.70;17.00;;;8.70;99.90;;;;;;5076568;28;20467;-72
2022/01/14 15:26:43;;;;;;;18.67;16.43;;;8.50;99.90;;;;;;5081782;28;20456;-72
2022/01/14 15:29:10;;;;;;;17.67;15.83;;;8.40;99.90;;;;;;5089335;28;20447;-70
2022/01/14 15:31:36;;;;;;;24.87;16.97;;;8.40;99.90;;;;;;5090632;28;20469;-72
2022/01/14 15:34:03;;;;;;;20.20;17.70;;;8.30;99.90;;;;;;5084073;28;20455;-71
2022/01/14 15:36:30;;;;;;;17.60;15.77;;;8.30;99.90;;;;;;5079660;28;20536;-71
2022/01/14 15:38:58;;;;;;;18.10;16.20;;;8.20;99.90;;;;;;5077047;28;20454;-72
2022/01/14 15:41:29;;;;;;;18.50;16.20;;;8.10;99.90;;;;;;5076286;28;21001;-71
2022/01/14 15:43:57;;;;;;;19.57;16.47;;;8.10;99.90;;;;;;5081203;28;20434;-72
2022/01/14 15:46:23;;;;;;;19.57;17.20;;;8.00;99.90;;;;;;5083866;28;20459;-70
2022/01/14 15:48:50;;;;;;;20.67;17.20;;;8.00;99.90;;;;;;5075797;28;20455;-73
2022/01/14 15:51:17;;;;;;;18.33;16.00;;;7.80;99.90;;;;;;5075312;28;20581;-73
2022/01/14 15:53:44;;;;;;;27.27;17.97;;;7.70;99.90;;;;;;5083375;28;20449;-73
2022/01/14 15:56:12;;;;;;;18.73;16.77;;;7.70;99.90;;;;;;5092833;28;20478;-72
2022/01/14 15:58:39;;;;;;;21.27;17.57;;;7.50;99.90;;;;;;5088119;28;20458;-73
2022/01/14 16:01:06;;;;;;;19.10;17.03;;;7.40;99.90;;;;;;5093500;28;20474;-73
2022/01/14 16:03:34;;;;;;;19.77;17.73;;;7.30;99.90;;;;;;5096574;28;20474;-73
2022/01/14 16:06:01;;;;;;;21.13;18.50;;;7.10;99.90;;;;;;5077992;28;20912;-72
2022/01/14 16:08:28;;;;;;;21.20;18.40;;;7.00;99.90;;;;;;5075017;28;20439;-75
2022/01/14 16:10:55;;;;;;;27.47;20.40;;;6.90;99.90;;;;;;5074938;28;20471;-76
2022/01/14 16:13:23;;;;;;;24.17;19.47;;;6.70;99.90;;;;;;5074141;28;20465;-73
2022/01/14 16:15:49;;;;;;;23.67;18.77;;;6.60;99.90;;;;;;5074530;28;20455;-75
2022/01/14 16:18:16;;;;;;;27.10;19.50;;;6.50;99.90;;;;;;5074063;28;20450;-73
2022/01/14 16:20:43;;;;;;;25.80;18.67;;;6.30;99.90;;;;;;5074175;28;20489;-72
2022/01/14 16:23:10;;;;;;;21.30;18.53;;;6.20;99.90;;;;;;5074561;28;20500;-75
2022/01/14 16:25:37;;;;;;;21.97;18.40;;;6.20;99.90;;;;;;5074508;28;20561;-73
2022/01/14 16:28:03;;;;;;;23.53;18.90;;;6.10;99.90;;;;;;5074734;28;20458;-74
2022/01/14 16:30:31;;;;;;;24.43;19.87;;;6.00;99.90;;;;;;5074991;28;20467;-74
2022/01/14 16:32:58;;;;;;;25.00;20.33;;;5.90;99.90;;;;;;5074605;28;20447;-75
2022/01/14 16:35:25;;;;;;;25.30;20.90;;;5.80;99.90;;;;;;5074844;28;20435;-74
2022/01/14 16:37:52;;;;;;;25.50;20.77;;;5.70;99.90;;;;;;5074526;28;20458;-75
2022/01/14 16:40:19;;;;;;;26.27;21.43;;;5.70;99.90;;;;;;5074581;28;20458;-74
2022/01/14 16:42:47;;;;;;;30.50;20.87;;;5.60;99.90;;;;;;5074517;28;20451;-75
2022/01/14 16:45:14;;;;;;;29.43;23.93;;;5.50;99.90;;;;;;5074389;28;20470;-76
2022/01/14 16:47:44;;;;;;;24.90;21.10;;;5.50;99.90;;;;;;5074387;28;20949;-75
2022/01/14 16:50:11;;;;;;;29.60;20.80;;;5.40;99.90;;;;;;5074437;28;20504;-75
2022/01/14 16:52:38;;;;;;;26.53;20.80;;;5.40;99.90;;;;;;5075493;28;20532;-72
2022/01/14 16:55:08;;;;;;;24.40;20.97;;;5.30;99.90;;;;;;5076156;28;20537;-74
2022/01/14 16:57:34;;;;;;;23.20;20.63;;;5.30;99.90;;;;;;5076784;28;20450;-73
2022/01/14 17:00:02;;;;;;;28.17;24.30;;;5.20;99.90;;;;;;5076828;28;20462;-74
2022/01/14 17:02:29;;;;;;;28.13;22.37;;;5.20;99.90;;;;;;5078058;28;20482;-72
2022/01/14 17:04:57;;;;;;;26.73;22.90;;;5.20;99.90;;;;;;5075798;28;20474;-73
2022/01/14 17:07:24;;;;;;;30.00;22.90;;;5.10;99.90;;;;;;5074542;28;20446;-70
2022/01/14 17:12:46;;;;;;;27.20;23.83;;;5.00;99.90;;;;;;5081987;28;20954;-72
2022/01/14 17:15:13;;;;;;;27.73;22.97;;;5.00;99.90;;;;;;5074432;28;20485;-73
2022/01/14 17:17:40;;;;;;;26.97;22.00;;;5.00;99.90;;;;;;5075730;28;20451;-75
2022/01/14 17:20:10;;;;;;;26.13;22.80;;;5.00;99.90;;;;;;5075847;28;20430;-72
2022/01/14 17:22:37;;;;;;;26.30;23.03;;;5.00;99.90;;;;;;5075851;28;20477;-72
2022/01/14 17:25:04;;;;;;;46.60;31.07;;;4.90;99.90;;;;;;5075480;28;20470;-71
2022/01/14 17:27:31;;;;;;;32.70;26.27;;;4.90;99.90;;;;;;5075478;28;20454;-71
2022/01/14 17:29:58;;;;;;;40.17;29.00;;;4.90;99.90;;;;;;5076235;28;20443;-71
2022/01/14 17:32:25;;;;;;;38.67;28.77;;;4.90;99.90;;;;;;5076618;28;20479;-71
2022/01/14 17:34:51;;;;;;;38.83;27.47;;;4.90;99.90;;;;;;5074292;28;20453;-72
2022/01/14 17:37:19;;;;;;;35.63;26.23;;;4.90;99.90;;;;;;5073992;28;20457;-72
2022/01/14 17:39:46;;;;;;;31.97;26.77;;;4.90;99.90;;;;;;5074162;28;20435;-71
2022/01/14 17:42:16;;;;;;;36.90;28.00;;;4.80;99.90;;;;;;5074002;28;20967;-71
2022/01/14 17:44:43;;;;;;;38.37;29.20;;;4.80;99.90;;;;;;5074121;28;20474;-71
2022/01/14 17:47:10;;;;;;;32.83;25.30;;;4.80;99.90;;;;;;5073824;28;20504;-72
2022/01/14 17:49:37;;;;;;;31.10;23.47;;;4.80;99.90;;;;;;5073896;28;20552;-72
2022/01/14 17:52:05;;;;;;;29.97;25.63;;;4.80;99.90;;;;;;5074051;28;20482;-72
2022/01/14 17:54:33;;;;;;;27.17;23.17;;;4.80;99.90;;;;;;5074791;28;20537;-72
2022/01/14 17:57:00;;;;;;;30.23;23.60;;;4.70;99.90;;;;;;5075077;28;20948;-72